sensor_id;sensor_type;location;lat;lon;timestamp;temperature;humidity
13049;DHT22;6591;51.446;5.404;2022-08-01T00:02:02;21.80;99.90
13049;DHT22;6591;51.446;5.404;2022-08-01T00:04:31;21.80;99.90
13049;DHT22;6591;51.446;5.404;2022-08-01T00:07:00;21.90;99.90
13049;DHT22;6591;51.446;5.404;2022-08-01T00:09:27;21.80;99.90
13049;DHT22;6591;51.446;5.404;2022-08-01T00:11:54;21.80;99.90
13049;DHT22;6591;51.446;5.404;2022-08-01T00:14:26;21.80;99.90
13049;DHT22;6591;51.446;5.404;2022-08-01T00:16:58;23.20;99.90
13049;DHT22;6591;51.446;5.404;2022-08-01T00:19:34;23.10;99.90
13049;DHT22;6591;51.446;5.404;2022-08-01T00:22:01;21.80;99.90
13049;DHT22;6591;51.446;5.404;2022-08-01T00:24:28;21.80;99.90
13049;DHT22;6591;51.446;5.404;2022-08-01T00:26:55;21.80;99.90
13049;DHT22;6591;51.446;5.404;2022-08-01T00:29:23;22.00;99.90
13049;DHT22;6591;51.446;5.404;2022-08-01T00:32:14;23.00;99.90
13049;DHT22;6591;51.446;5.404;2022-08-01T00:34:41;22.30;99.90
13049;DHT22;6591;51.446;5.404;2022-08-01T00:37:09;21.80;99.90
13049;DHT22;6591;51.446;5.404;2022-08-01T00:39:42;22.60;99.90
13049;DHT22;6591;51.446;5.404;2022-08-01T00:42:10;21.80;99.90
13049;DHT22;6591;51.446;5.404;2022-08-01T00:44:40;21.80;99.90
13049;DHT22;6591;51.446;5.404;2022-08-01T00:47:08;22.90;99.90
13049;DHT22;6591;51.446;5.404;2022-08-01T00:49:35;21.80;99.90
13049;DHT22;6591;51.446;5.404;2022-08-01T00:52:03;23.80;99.90
13049;DHT22;6591;51.446;5.404;2022-08-01T00:54:37;21.70;99.90
13049;DHT22;6591;51.446;5.404;2022-08-01T00:57:04;23.00;99.90
13049;DHT22;6591;51.446;5.404;2022-08-01T00:59:36;21.70;99.90
13049;DHT22;6591;51.446;5.404;2022-08-01T01:02:07;21.70;99.90
13049;DHT22;6591;51.446;5.404;2022-08-01T01:04:45;21.70;99.90
13049;DHT22;6591;51.446;5.404;2022-08-01T01:12:52;21.70;99.90
13049;DHT22;6591;51.446;5.404;2022-08-01T01:15:41;21.70;99.90
13049;DHT22;6591;51.446;5.404;2022-08-01T01:21:14;22.20;99.90
13049;DHT22;6591;51.446;5.404;2022-08-01T01:27:33;21.50;99.90
13049;DHT22;6591;51.446;5.404;2022-08-01T01:30:25;21.50;99.90
13049;DHT22;6591;51.446;5.404;2022-08-01T01:32:59;21.50;99.90
13049;DHT22;6591;51.446;5.404;2022-08-01T01:35:35;21.50;99.90
13049;DHT22;6591;51.446;5.404;2022-08-01T01:38:10;23.40;99.90
13049;DHT22;6591;51.446;5.404;2022-08-01T01:40:49;21.40;99.90
13049;DHT22;6591;51.446;5.404;2022-08-01T01:43:19;21.30;99.90
13049;DHT22;6591;51.446;5.404;2022-08-01T01:46:00;21.30;99.90
13049;DHT22;6591;51.446;5.404;2022-08-01T01:48:29;21.30;99.90
13049;DHT22;6591;51.446;5.404;2022-08-01T01:50:58;21.30;99.90
13049;DHT22;6591;51.446;5.404;2022-08-01T01:53:28;21.30;99.90
13049;DHT22;6591;51.446;5.404;2022-08-01T01:55:57;21.50;99.90
13049;DHT22;6591;51.446;5.404;2022-08-01T01:58:27;22.10;99.90
13049;DHT22;6591;51.446;5.404;2022-08-01T02:00:58;21.40;99.90
13049;DHT22;6591;51.446;5.404;2022-08-01T02:03:30;21.30;99.90
13049;DHT22;6591;51.446;5.404;2022-08-01T02:06:02;21.30;99.90
13049;DHT22;6591;51.446;5.404;2022-08-01T02:08:31;21.30;99.90
13049;DHT22;6591;51.446;5.404;2022-08-01T02:11:01;21.30;99.90
13049;DHT22;6591;51.446;5.404;2022-08-01T02:14:01;22.80;99.90
13049;DHT22;6591;51.446;5.404;2022-08-01T02:16:34;23.30;99.90
13049;DHT22;6591;51.446;5.404;2022-08-01T02:19:03;21.30;99.90
13049;DHT22;6591;51.446;5.404;2022-08-01T02:21:34;21.30;99.90
13049;DHT22;6591;51.446;5.404;2022-08-01T02:24:29;24.00;99.90
13049;DHT22;6591;51.446;5.404;2022-08-01T02:27:07;22.70;99.90
13049;DHT22;6591;51.446;5.404;2022-08-01T02:29:59;21.30;99.90
13049;DHT22;6591;51.446;5.404;2022-08-01T02:32:36;21.30;99.90
13049;DHT22;6591;51.446;5.404;2022-08-01T02:35:13;22.70;99.90
13049;DHT22;6591;51.446;5.404;2022-08-01T02:37:53;21.30;99.90
13049;DHT22;6591;51.446;5.404;2022-08-01T02:40:32;21.80;99.90
13049;DHT22;6591;51.446;5.404;2022-08-01T02:43:03;22.60;99.90
13049;DHT22;6591;51.446;5.404;2022-08-01T02:45:43;21.30;99.90
13049;DHT22;6591;51.446;5.404;2022-08-01T02:48:15;21.90;99.90
13049;DHT22;6591;51.446;5.404;2022-08-01T02:50:49;21.30;99.90
13049;DHT22;6591;51.446;5.404;2022-08-01T02:53:21;21.30;99.90
13049;DHT22;6591;51.446;5.404;2022-08-01T02:56:13;21.30;99.90
13049;DHT22;6591;51.446;5.404;2022-08-01T02:58:44;21.30;99.90
13049;DHT22;6591;51.446;5.404;2022-08-01T03:01:19;21.30;99.90
13049;DHT22;6591;51.446;5.404;2022-08-01T03:03:48;23.20;99.90
13049;DHT22;6591;51.446;5.404;2022-08-01T03:06:15;22.00;99.90
13049;DHT22;6591;51.446;5.404;2022-08-01T03:08:44;20.20;99.90
13049;DHT22;6591;51.446;5.404;2022-08-01T03:11:13;23.40;99.90
13049;DHT22;6591;51.446;5.404;2022-08-01T03:13:42;21.30;99.90
13049;DHT22;6591;51.446;5.404;2022-08-01T03:16:13;21.30;99.90
13049;DHT22;6591;51.446;5.404;2022-08-01T03:18:43;21.30;99.90
13049;DHT22;6591;51.446;5.404;2022-08-01T03:21:13;21.30;99.90
13049;DHT22;6591;51.446;5.404;2022-08-01T03:23:41;21.30;99.90
13049;DHT22;6591;51.446;5.404;2022-08-01T03:26:13;21.20;99.90
13049;DHT22;6591;51.446;5.404;2022-08-01T03:28:41;21.90;99.90
13049;DHT22;6591;51.446;5.404;2022-08-01T03:31:14;23.00;99.90
13049;DHT22;6591;51.446;5.404;2022-08-01T03:33:42;21.20;99.90
13049;DHT22;6591;51.446;5.404;2022-08-01T03:36:11;22.10;99.90
13049;DHT22;6591;51.446;5.404;2022-08-01T03:38:40;21.10;99.90
13049;DHT22;6591;51.446;5.404;2022-08-01T03:41:14;21.20;99.90
13049;DHT22;6591;51.446;5.404;2022-08-01T03:43:53;21.10;99.90
13049;DHT22;6591;51.446;5.404;2022-08-01T03:46:33;22.30;99.90
13049;DHT22;6591;51.446;5.404;2022-08-01T03:49:11;21.10;99.90
13049;DHT22;6591;51.446;5.404;2022-08-01T03:51:45;21.20;99.90
13049;DHT22;6591;51.446;5.404;2022-08-01T03:54:17;21.80;99.90
13049;DHT22;6591;51.446;5.404;2022-08-01T03:56:51;21.10;99.90
13049;DHT22;6591;51.446;5.404;2022-08-01T03:59:19;21.30;99.90
13049;DHT22;6591;51.446;5.404;2022-08-01T04:01:47;21.60;99.90
13049;DHT22;6591;51.446;5.404;2022-08-01T04:04:15;22.10;99.90
13049;DHT22;6591;51.446;5.404;2022-08-01T04:06:47;21.10;99.90
13049;DHT22;6591;51.446;5.404;2022-08-01T04:09:20;21.10;99.90
13049;DHT22;6591;51.446;5.404;2022-08-01T04:11:48;21.10;99.90
13049;DHT22;6591;51.446;5.404;2022-08-01T04:14:15;21.10;99.90
13049;DHT22;6591;51.446;5.404;2022-08-01T04:16:42;21.10;99.90
13049;DHT22;6591;51.446;5.404;2022-08-01T04:19:15;21.10;99.90
13049;DHT22;6591;51.446;5.404;2022-08-01T04:21:42;21.10;99.90
13049;DHT22;6591;51.446;5.404;2022-08-01T04:24:15;21.10;99.90
13049;DHT22;6591;51.446;5.404;2022-08-01T04:26:46;21.10;99.90
13049;DHT22;6591;51.446;5.404;2022-08-01T04:29:16;21.10;99.90
13049;DHT22;6591;51.446;5.404;2022-08-01T04:31:46;23.40;99.90
13049;DHT22;6591;51.446;5.404;2022-08-01T04:34:19;22.10;99.90
13049;DHT22;6591;51.446;5.404;2022-08-01T04:36:52;21.20;99.90
13049;DHT22;6591;51.446;5.404;2022-08-01T04:39:24;21.20;99.90
13049;DHT22;6591;51.446;5.404;2022-08-01T04:42:01;21.70;99.90
13049;DHT22;6591;51.446;5.404;2022-08-01T04:44:33;21.20;99.90
13049;DHT22;6591;51.446;5.404;2022-08-01T04:47:29;21.20;99.90
13049;DHT22;6591;51.446;5.404;2022-08-01T04:49:57;21.50;99.90
13049;DHT22;6591;51.446;5.404;2022-08-01T04:52:35;21.20;99.90
13049;DHT22;6591;51.446;5.404;2022-08-01T04:55:05;21.20;99.90
13049;DHT22;6591;51.446;5.404;2022-08-01T04:57:36;21.30;99.90
13049;DHT22;6591;51.446;5.404;2022-08-01T05:00:08;22.30;99.90
13049;DHT22;6591;51.446;5.404;2022-08-01T05:02:35;21.30;99.90
13049;DHT22;6591;51.446;5.404;2022-08-01T05:05:02;21.40;99.90
13049;DHT22;6591;51.446;5.404;2022-08-01T05:07:33;21.30;99.90
13049;DHT22;6591;51.446;5.404;2022-08-01T05:10:11;23.10;99.90
13049;DHT22;6591;51.446;5.404;2022-08-01T05:12:38;21.40;99.90
13049;DHT22;6591;51.446;5.404;2022-08-01T05:15:06;21.40;99.90
13049;DHT22;6591;51.446;5.404;2022-08-01T05:17:40;21.40;99.90
13049;DHT22;6591;51.446;5.404;2022-08-01T05:20:09;21.40;99.90
13049;DHT22;6591;51.446;5.404;2022-08-01T05:22:40;21.50;99.90
13049;DHT22;6591;51.446;5.404;2022-08-01T05:25:07;23.20;99.90
13049;DHT22;6591;51.446;5.404;2022-08-01T05:27:34;21.50;99.90
13049;DHT22;6591;51.446;5.404;2022-08-01T05:30:08;23.80;99.90
13049;DHT22;6591;51.446;5.404;2022-08-01T05:32:37;21.60;99.90
13049;DHT22;6591;51.446;5.404;2022-08-01T05:35:06;22.30;99.90
13049;DHT22;6591;51.446;5.404;2022-08-01T05:37:34;21.70;99.90
13049;DHT22;6591;51.446;5.404;2022-08-01T05:40:01;21.70;99.90
13049;DHT22;6591;51.446;5.404;2022-08-01T05:42:29;21.70;99.90
13049;DHT22;6591;51.446;5.404;2022-08-01T05:44:56;22.30;99.90
13049;DHT22;6591;51.446;5.404;2022-08-01T05:47:23;21.80;99.90
13049;DHT22;6591;51.446;5.404;2022-08-01T05:49:50;21.90;99.90
13049;DHT22;6591;51.446;5.404;2022-08-01T05:52:19;21.80;99.90
13049;DHT22;6591;51.446;5.404;2022-08-01T05:54:46;21.90;99.90
13049;DHT22;6591;51.446;5.404;2022-08-01T05:57:13;22.00;99.90
13049;DHT22;6591;51.446;5.404;2022-08-01T05:59:40;22.00;99.90
13049;DHT22;6591;51.446;5.404;2022-08-01T06:02:11;22.00;99.90
13049;DHT22;6591;51.446;5.404;2022-08-01T06:04:38;22.10;99.90
13049;DHT22;6591;51.446;5.404;2022-08-01T06:07:06;23.10;99.90
13049;DHT22;6591;51.446;5.404;2022-08-01T06:09:35;22.20;99.90
13049;DHT22;6591;51.446;5.404;2022-08-01T06:12:04;24.30;99.90
13049;DHT22;6591;51.446;5.404;2022-08-01T06:14:32;22.40;99.90
13049;DHT22;6591;51.446;5.404;2022-08-01T06:16:59;22.50;99.90
13049;DHT22;6591;51.446;5.404;2022-08-01T06:19:26;22.50;99.90
13049;DHT22;6591;51.446;5.404;2022-08-01T06:21:54;22.70;99.90
13049;DHT22;6591;51.446;5.404;2022-08-01T06:24:20;22.70;99.90
13049;DHT22;6591;51.446;5.404;2022-08-01T06:26:49;22.80;99.90
13049;DHT22;6591;51.446;5.404;2022-08-01T06:29:16;22.90;99.90
13049;DHT22;6591;51.446;5.404;2022-08-01T06:31:43;22.90;99.90
13049;DHT22;6591;51.446;5.404;2022-08-01T06:34:10;22.90;99.90
13049;DHT22;6591;51.446;5.404;2022-08-01T06:36:37;23.00;99.90
13049;DHT22;6591;51.446;5.404;2022-08-01T06:39:08;22.90;99.90
13049;DHT22;6591;51.446;5.404;2022-08-01T06:41:35;23.50;99.90
13049;DHT22;6591;51.446;5.404;2022-08-01T06:44:03;23.20;99.90
13049;DHT22;6591;51.446;5.404;2022-08-01T06:46:31;23.20;99.90
13049;DHT22;6591;51.446;5.404;2022-08-01T06:49:03;23.20;99.90
13049;DHT22;6591;51.446;5.404;2022-08-01T06:51:30;23.20;99.90
13049;DHT22;6591;51.446;5.404;2022-08-01T06:53:58;23.40;99.90
13049;DHT22;6591;51.446;5.404;2022-08-01T06:56:25;24.10;99.90
13049;DHT22;6591;51.446;5.404;2022-08-01T06:58:52;24.40;99.90
13049;DHT22;6591;51.446;5.404;2022-08-01T07:01:22;23.60;99.90
13049;DHT22;6591;51.446;5.404;2022-08-01T07:03:49;23.60;99.90
13049;DHT22;6591;51.446;5.404;2022-08-01T07:06:23;23.70;99.90
13049;DHT22;6591;51.446;5.404;2022-08-01T07:08:52;23.70;99.90
13049;DHT22;6591;51.446;5.404;2022-08-01T07:11:21;24.60;99.90
13049;DHT22;6591;51.446;5.404;2022-08-01T07:13:49;23.90;99.90
13049;DHT22;6591;51.446;5.404;2022-08-01T07:16:19;23.90;99.90
13049;DHT22;6591;51.446;5.404;2022-08-01T07:18:46;24.00;99.90
13049;DHT22;6591;51.446;5.404;2022-08-01T07:21:14;24.00;99.90
13049;DHT22;6591;51.446;5.404;2022-08-01T07:24:09;24.20;99.90
13049;DHT22;6591;51.446;5.404;2022-08-01T07:26:43;24.20;99.90
13049;DHT22;6591;51.446;5.404;2022-08-01T07:29:22;24.20;99.90
13049;DHT22;6591;51.446;5.404;2022-08-01T07:31:56;24.30;99.90
13049;DHT22;6591;51.446;5.404;2022-08-01T07:34:24;24.40;99.90
13049;DHT22;6591;51.446;5.404;2022-08-01T07:36:52;24.50;99.90
13049;DHT22;6591;51.446;5.404;2022-08-01T07:39:20;24.60;99.90
13049;DHT22;6591;51.446;5.404;2022-08-01T07:41:52;24.80;99.90
13049;DHT22;6591;51.446;5.404;2022-08-01T07:44:33;24.80;99.90
13049;DHT22;6591;51.446;5.404;2022-08-01T07:47:07;24.80;99.90
13049;DHT22;6591;51.446;5.404;2022-08-01T07:49:34;24.90;99.90
13049;DHT22;6591;51.446;5.404;2022-08-01T07:52:07;24.90;99.90
13049;DHT22;6591;51.446;5.404;2022-08-01T07:54:35;24.90;99.90
13049;DHT22;6591;51.446;5.404;2022-08-01T07:57:03;25.00;99.90
13049;DHT22;6591;51.446;5.404;2022-08-01T07:59:30;25.00;99.90
13049;DHT22;6591;51.446;5.404;2022-08-01T08:01:58;25.10;99.90
13049;DHT22;6591;51.446;5.404;2022-08-01T08:04:26;26.40;99.90
13049;DHT22;6591;51.446;5.404;2022-08-01T08:06:54;26.80;99.90
13049;DHT22;6591;51.446;5.404;2022-08-01T08:09:21;25.30;99.90
13049;DHT22;6591;51.446;5.404;2022-08-01T08:11:48;26.70;99.90
13049;DHT22;6591;51.446;5.404;2022-08-01T08:14:16;25.50;99.90
13049;DHT22;6591;51.446;5.404;2022-08-01T08:16:44;25.50;99.90
13049;DHT22;6591;51.446;5.404;2022-08-01T08:19:12;25.80;99.90
13049;DHT22;6591;51.446;5.404;2022-08-01T08:21:40;27.80;99.90
13049;DHT22;6591;51.446;5.404;2022-08-01T08:24:12;27.50;99.90
13049;DHT22;6591;51.446;5.404;2022-08-01T08:27:00;26.20;99.80
13049;DHT22;6591;51.446;5.404;2022-08-01T08:29:30;26.30;99.30
13049;DHT22;6591;51.446;5.404;2022-08-01T08:32:25;26.40;98.90
13049;DHT22;6591;51.446;5.404;2022-08-01T08:34:54;26.50;98.40
13049;DHT22;6591;51.446;5.404;2022-08-01T08:37:21;27.50;98.90
13049;DHT22;6591;51.446;5.404;2022-08-01T08:39:48;26.90;98.10
13049;DHT22;6591;51.446;5.404;2022-08-01T08:42:15;28.00;98.60
13049;DHT22;6591;51.446;5.404;2022-08-01T08:44:43;27.30;98.60
13049;DHT22;6591;51.446;5.404;2022-08-01T08:47:12;27.50;98.10
13049;DHT22;6591;51.446;5.404;2022-08-01T08:49:52;28.00;97.70
13049;DHT22;6591;51.446;5.404;2022-08-01T08:52:22;28.00;96.80
13049;DHT22;6591;51.446;5.404;2022-08-01T08:54:53;29.00;97.00
13049;DHT22;6591;51.446;5.404;2022-08-01T08:57:22;29.60;97.00
13049;DHT22;6591;51.446;5.404;2022-08-01T08:59:49;28.10;95.80
13049;DHT22;6591;51.446;5.404;2022-08-01T09:02:20;28.00;95.10
13049;DHT22;6591;51.446;5.404;2022-08-01T09:04:49;28.00;94.90
13049;DHT22;6591;51.446;5.404;2022-08-01T09:07:17;27.90;95.10
13049;DHT22;6591;51.446;5.404;2022-08-01T09:09:45;27.70;95.40
13049;DHT22;6591;51.446;5.404;2022-08-01T09:12:18;27.80;95.80
13049;DHT22;6591;51.446;5.404;2022-08-01T09:14:46;28.10;96.20
13049;DHT22;6591;51.446;5.404;2022-08-01T09:17:14;28.10;95.70
13049;DHT22;6591;51.446;5.404;2022-08-01T09:19:51;28.30;95.10
13049;DHT22;6591;51.446;5.404;2022-08-01T09:22:25;28.60;94.40
13049;DHT22;6591;51.446;5.404;2022-08-01T09:25:05;29.00;94.60
13049;DHT22;6591;51.446;5.404;2022-08-01T09:27:37;29.10;93.80
13049;DHT22;6591;51.446;5.404;2022-08-01T09:30:18;31.00;94.40
13049;DHT22;6591;51.446;5.404;2022-08-01T09:33:00;29.10;92.80
13049;DHT22;6591;51.446;5.404;2022-08-01T09:35:37;29.40;91.90
13049;DHT22;6591;51.446;5.404;2022-08-01T09:38:22;29.20;92.70
13049;DHT22;6591;51.446;5.404;2022-08-01T09:40:59;29.20;91.90
13049;DHT22;6591;51.446;5.404;2022-08-01T09:43:30;29.40;92.40
13049;DHT22;6591;51.446;5.404;2022-08-01T09:46:19;29.80;92.20
13049;DHT22;6591;51.446;5.404;2022-08-01T09:49:15;30.60;92.30
13049;DHT22;6591;51.446;5.404;2022-08-01T09:52:16;30.20;91.00
13049;DHT22;6591;51.446;5.404;2022-08-01T09:55:03;30.40;91.10
13049;DHT22;6591;51.446;5.404;2022-08-01T09:57:32;30.50;90.00
13049;DHT22;6591;51.446;5.404;2022-08-01T10:00:04;30.70;90.60
13049;DHT22;6591;51.446;5.404;2022-08-01T10:02:39;30.70;90.10
13049;DHT22;6591;51.446;5.404;2022-08-01T10:05:13;30.90;88.90
13049;DHT22;6591;51.446;5.404;2022-08-01T10:07:58;32.40;89.50
13049;DHT22;6591;51.446;5.404;2022-08-01T10:10:35;31.20;86.60
13049;DHT22;6591;51.446;5.404;2022-08-01T10:13:04;32.40;87.40
13049;DHT22;6591;51.446;5.404;2022-08-01T10:15:36;31.40;85.00
13049;DHT22;6591;51.446;5.404;2022-08-01T10:18:06;31.50;81.70
13049;DHT22;6591;51.446;5.404;2022-08-01T10:20:52;31.50;81.40
13049;DHT22;6591;51.446;5.404;2022-08-01T10:23:33;31.40;81.80
13049;DHT22;6591;51.446;5.404;2022-08-01T10:26:07;32.10;81.90
13049;DHT22;6591;51.446;5.404;2022-08-01T10:28:38;31.50;82.30
13049;DHT22;6591;51.446;5.404;2022-08-01T10:31:11;31.60;79.50
13049;DHT22;6591;51.446;5.404;2022-08-01T10:33:40;31.70;80.40
13049;DHT22;6591;51.446;5.404;2022-08-01T10:36:20;31.70;77.60
13049;DHT22;6591;51.446;5.404;2022-08-01T10:38:52;31.60;76.20
13049;DHT22;6591;51.446;5.404;2022-08-01T10:41:21;32.40;77.00
13049;DHT22;6591;51.446;5.404;2022-08-01T10:43:49;31.30;77.80
13049;DHT22;6591;51.446;5.404;2022-08-01T10:46:19;31.10;78.30
13049;DHT22;6591;51.446;5.404;2022-08-01T10:49:00;31.00;79.40
13049;DHT22;6591;51.446;5.404;2022-08-01T10:51:41;31.00;76.80
13049;DHT22;6591;51.446;5.404;2022-08-01T10:54:24;31.00;77.60
13049;DHT22;6591;51.446;5.404;2022-08-01T10:57:00;31.10;77.50
13049;DHT22;6591;51.446;5.404;2022-08-01T10:59:28;31.30;77.60
13049;DHT22;6591;51.446;5.404;2022-08-01T11:02:28;30.80;77.30
13049;DHT22;6591;51.446;5.404;2022-08-01T11:05:04;31.20;76.60
13049;DHT22;6591;51.446;5.404;2022-08-01T11:07:48;30.70;77.90
13049;DHT22;6591;51.446;5.404;2022-08-01T11:10:37;30.70;76.80
13049;DHT22;6591;51.446;5.404;2022-08-01T11:13:12;30.50;77.00
13049;DHT22;6591;51.446;5.404;2022-08-01T11:15:41;31.10;78.40
13049;DHT22;6591;51.446;5.404;2022-08-01T11:18:30;30.00;78.50
13049;DHT22;6591;51.446;5.404;2022-08-01T11:21:02;29.80;78.10
13049;DHT22;6591;51.446;5.404;2022-08-01T11:23:50;29.50;79.90
13049;DHT22;6591;51.446;5.404;2022-08-01T11:26:21;29.40;81.50
13049;DHT22;6591;51.446;5.404;2022-08-01T11:29:13;29.30;81.30
13049;DHT22;6591;51.446;5.404;2022-08-01T11:31:48;29.20;81.30
13049;DHT22;6591;51.446;5.404;2022-08-01T11:34:15;29.90;82.20
13049;DHT22;6591;51.446;5.404;2022-08-01T11:36:42;29.00;81.60
13049;DHT22;6591;51.446;5.404;2022-08-01T11:39:28;28.90;81.60
13049;DHT22;6591;51.446;5.404;2022-08-01T11:42:17;28.90;81.90
13049;DHT22;6591;51.446;5.404;2022-08-01T11:44:49;28.90;80.00
13049;DHT22;6591;51.446;5.404;2022-08-01T11:51:02;28.80;80.50
13049;DHT22;6591;51.446;5.404;2022-08-01T11:53:29;28.80;80.80
13049;DHT22;6591;51.446;5.404;2022-08-01T11:55:59;28.80;80.50
13049;DHT22;6591;51.446;5.404;2022-08-01T11:58:30;28.80;79.60
13049;DHT22;6591;51.446;5.404;2022-08-01T12:00:58;28.70;79.70
13049;DHT22;6591;51.446;5.404;2022-08-01T12:03:28;28.50;80.80
13049;DHT22;6591;51.446;5.404;2022-08-01T12:06:00;29.10;81.30
13049;DHT22;6591;51.446;5.404;2022-08-01T12:08:32;28.30;80.50
13049;DHT22;6591;51.446;5.404;2022-08-01T12:11:03;29.40;81.10
13049;DHT22;6591;51.446;5.404;2022-08-01T12:13:42;30.30;82.70
13049;DHT22;6591;51.446;5.404;2022-08-01T12:16:11;28.40;80.90
13049;DHT22;6591;51.446;5.404;2022-08-01T12:18:40;27.90;81.50
13049;DHT22;6591;51.446;5.404;2022-08-01T12:21:08;29.60;83.50
13049;DHT22;6591;51.446;5.404;2022-08-01T12:23:36;27.70;82.00
13049;DHT22;6591;51.446;5.404;2022-08-01T12:26:05;27.70;82.20
13049;DHT22;6591;51.446;5.404;2022-08-01T12:28:39;28.30;82.50
13049;DHT22;6591;51.446;5.404;2022-08-01T12:31:07;27.70;80.90
13049;DHT22;6591;51.446;5.404;2022-08-01T12:33:34;27.90;80.70
13049;DHT22;6591;51.446;5.404;2022-08-01T12:36:01;26.60;79.60
13049;DHT22;6591;51.446;5.404;2022-08-01T12:38:28;27.60;80.80
13049;DHT22;6591;51.446;5.404;2022-08-01T12:40:59;27.60;81.30
13049;DHT22;6591;51.446;5.404;2022-08-01T12:43:27;27.60;81.50
13049;DHT22;6591;51.446;5.404;2022-08-01T12:46:00;27.60;81.70
13049;DHT22;6591;51.446;5.404;2022-08-01T12:48:29;27.70;81.10
13049;DHT22;6591;51.446;5.404;2022-08-01T12:50:58;27.90;81.40
13049;DHT22;6591;51.446;5.404;2022-08-01T12:53:27;28.30;81.50
13049;DHT22;6591;51.446;5.404;2022-08-01T12:56:10;28.20;79.10
13049;DHT22;6591;51.446;5.404;2022-08-01T12:58:40;28.30;80.00
13049;DHT22;6591;51.446;5.404;2022-08-01T13:01:10;28.60;79.10
13049;DHT22;6591;51.446;5.404;2022-08-01T13:03:40;28.80;76.70
13049;DHT22;6591;51.446;5.404;2022-08-01T13:06:28;30.10;76.50
13049;DHT22;6591;51.446;5.404;2022-08-01T13:09:05;29.20;74.40
13049;DHT22;6591;51.446;5.404;2022-08-01T13:11:33;29.30;74.80
13049;DHT22;6591;51.446;5.404;2022-08-01T13:14:01;29.50;75.80
13049;DHT22;6591;51.446;5.404;2022-08-01T13:16:29;29.50;74.40
13049;DHT22;6591;51.446;5.404;2022-08-01T13:19:18;29.80;74.20
13049;DHT22;6591;51.446;5.404;2022-08-01T13:21:56;30.80;75.10
13049;DHT22;6591;51.446;5.404;2022-08-01T13:24:27;29.30;72.90
13049;DHT22;6591;51.446;5.404;2022-08-01T13:26:57;29.20;73.60
13049;DHT22;6591;51.446;5.404;2022-08-01T13:29:38;29.10;73.80
13049;DHT22;6591;51.446;5.404;2022-08-01T13:35:08;29.00;73.80
13049;DHT22;6591;51.446;5.404;2022-08-01T13:37:40;28.90;74.60
13049;DHT22;6591;51.446;5.404;2022-08-01T13:40:10;29.80;76.50
13049;DHT22;6591;51.446;5.404;2022-08-01T13:42:38;28.90;75.90
13049;DHT22;6591;51.446;5.404;2022-08-01T13:45:06;29.10;75.80
13049;DHT22;6591;51.446;5.404;2022-08-01T13:47:44;29.10;76.70
13049;DHT22;6591;51.446;5.404;2022-08-01T13:50:32;29.10;75.50
13049;DHT22;6591;51.446;5.404;2022-08-01T13:52:59;29.20;74.70
13049;DHT22;6591;51.446;5.404;2022-08-01T13:55:26;29.20;74.10
13049;DHT22;6591;51.446;5.404;2022-08-01T13:58:00;29.60;74.50
13049;DHT22;6591;51.446;5.404;2022-08-01T14:00:32;29.70;74.20
13049;DHT22;6591;51.446;5.404;2022-08-01T14:02:59;29.30;74.30
13049;DHT22;6591;51.446;5.404;2022-08-01T14:05:26;29.40;74.20
13049;DHT22;6591;51.446;5.404;2022-08-01T14:07:53;30.60;74.00
13049;DHT22;6591;51.446;5.404;2022-08-01T14:10:24;27.40;71.00
13049;DHT22;6591;51.446;5.404;2022-08-01T14:12:51;29.50;71.30
13049;DHT22;6591;51.446;5.404;2022-08-01T14:15:23;31.00;72.00
13049;DHT22;6591;51.446;5.404;2022-08-01T14:18:06;29.60;70.80
13049;DHT22;6591;51.446;5.404;2022-08-01T14:20:36;29.70;71.30
13049;DHT22;6591;51.446;5.404;2022-08-01T14:23:05;29.80;69.80
13049;DHT22;6591;51.446;5.404;2022-08-01T14:25:39;31.60;70.70
13049;DHT22;6591;51.446;5.404;2022-08-01T14:28:31;29.80;69.50
13049;DHT22;6591;51.446;5.404;2022-08-01T14:31:03;29.70;69.30
13049;DHT22;6591;51.446;5.404;2022-08-01T14:33:36;32.20;72.00
13049;DHT22;6591;51.446;5.404;2022-08-01T14:36:04;30.00;68.80
13049;DHT22;6591;51.446;5.404;2022-08-01T14:38:51;30.10;68.80
13049;DHT22;6591;51.446;5.404;2022-08-01T14:41:26;30.40;68.70
13049;DHT22;6591;51.446;5.404;2022-08-01T14:43:57;30.50;68.10
13049;DHT22;6591;51.446;5.404;2022-08-01T14:46:25;30.70;66.60
13049;DHT22;6591;51.446;5.404;2022-08-01T14:48:52;30.50;65.50
13049;DHT22;6591;51.446;5.404;2022-08-01T14:51:19;30.40;65.50
13049;DHT22;6591;51.446;5.404;2022-08-01T14:53:46;30.30;65.50
13049;DHT22;6591;51.446;5.404;2022-08-01T14:56:19;30.20;66.20
13049;DHT22;6591;51.446;5.404;2022-08-01T14:58:46;29.90;65.60
13049;DHT22;6591;51.446;5.404;2022-08-01T15:01:14;29.70;66.00
13049;DHT22;6591;51.446;5.404;2022-08-01T15:03:41;29.50;67.10
13049;DHT22;6591;51.446;5.404;2022-08-01T15:06:12;29.50;67.60
13049;DHT22;6591;51.446;5.404;2022-08-01T15:08:40;29.50;67.20
13049;DHT22;6591;51.446;5.404;2022-08-01T15:11:12;29.50;67.00
13049;DHT22;6591;51.446;5.404;2022-08-01T15:13:39;29.70;66.50
13049;DHT22;6591;51.446;5.404;2022-08-01T15:16:08;29.70;66.20
13049;DHT22;6591;51.446;5.404;2022-08-01T15:18:37;29.90;66.10
13049;DHT22;6591;51.446;5.404;2022-08-01T15:21:04;30.00;66.50
13049;DHT22;6591;51.446;5.404;2022-08-01T15:23:32;30.30;65.30
13049;DHT22;6591;51.446;5.404;2022-08-01T15:25:59;30.50;64.60
13049;DHT22;6591;51.446;5.404;2022-08-01T15:28:26;32.00;65.40
13049;DHT22;6591;51.446;5.404;2022-08-01T15:30:54;31.70;64.20
13049;DHT22;6591;51.446;5.404;2022-08-01T15:33:21;31.10;61.80
13049;DHT22;6591;51.446;5.404;2022-08-01T15:35:49;31.30;62.10
13049;DHT22;6591;51.446;5.404;2022-08-01T15:38:18;31.50;61.50
13049;DHT22;6591;51.446;5.404;2022-08-01T15:40:45;31.50;61.10
13049;DHT22;6591;51.446;5.404;2022-08-01T15:43:13;31.50;60.60
13049;DHT22;6591;51.446;5.404;2022-08-01T15:45:41;31.40;60.70
13049;DHT22;6591;51.446;5.404;2022-08-01T15:48:16;31.80;60.90
13049;DHT22;6591;51.446;5.404;2022-08-01T15:50:43;31.10;60.00
13049;DHT22;6591;51.446;5.404;2022-08-01T15:53:10;31.00;60.00
13049;DHT22;6591;51.446;5.404;2022-08-01T15:55:37;31.20;61.10
13049;DHT22;6591;51.446;5.404;2022-08-01T15:58:06;30.70;60.90
13049;DHT22;6591;51.446;5.404;2022-08-01T16:00:37;30.60;60.60
13049;DHT22;6591;51.446;5.404;2022-08-01T16:03:06;30.50;61.10
13049;DHT22;6591;51.446;5.404;2022-08-01T16:05:40;30.60;61.70
13049;DHT22;6591;51.446;5.404;2022-08-01T16:08:11;30.30;61.60
13049;DHT22;6591;51.446;5.404;2022-08-01T16:10:42;30.30;60.60
13049;DHT22;6591;51.446;5.404;2022-08-01T16:13:10;30.20;60.10
13049;DHT22;6591;51.446;5.404;2022-08-01T16:15:37;30.00;60.90
13049;DHT22;6591;51.446;5.404;2022-08-01T16:18:10;30.00;61.70
13049;DHT22;6591;51.446;5.404;2022-08-01T16:20:42;32.00;63.50
13049;DHT22;6591;51.446;5.404;2022-08-01T16:23:13;31.00;62.90
13049;DHT22;6591;51.446;5.404;2022-08-01T16:25:41;30.40;62.90
13049;DHT22;6591;51.446;5.404;2022-08-01T16:28:10;30.70;63.40
13049;DHT22;6591;51.446;5.404;2022-08-01T16:30:37;31.00;63.30
13049;DHT22;6591;51.446;5.404;2022-08-01T16:33:25;31.40;63.40
13049;DHT22;6591;51.446;5.404;2022-08-01T16:36:12;31.90;62.50